sensor_id;sensor_type;location;lat;lon;timestamp;pressure;altitude;pressure_sealevel;temperature;humidity
18784;BME280;9520;50.954;6.968;2022-11-03T00:00:12;101136.06;;;18.18;41.35
18784;BME280;9520;50.954;6.968;2022-11-03T00:00:33;101140.59;;;18.16;41.43
18784;BME280;9520;50.954;6.968;2022-11-03T00:00:55;101128.78;;;17.99;41.54
18784;BME280;9520;50.954;6.968;2022-11-03T00:01:17;101128.78;;;17.99;41.62
18784;BME280;9520;50.954;6.968;2022-11-03T00:01:40;101140.34;;;18.00;41.90
18784;BME280;9520;50.954;6.968;2022-11-03T00:02:03;101133.91;;;18.05;41.88
18784;BME280;9520;50.954;6.968;2022-11-03T00:02:25;101135.63;;;18.06;41.62
18784;BME280;9520;50.954;6.968;2022-11-03T00:02:46;101138.06;;;18.12;41.62
18784;BME280;9520;50.954;6.968;2022-11-03T00:03:08;101138.78;;;18.16;41.75
18784;BME280;9520;50.954;6.968;2022-11-03T00:03:31;101140.50;;;18.19;41.64
18784;BME280;9520;50.954;6.968;2022-11-03T00:03:52;101136.81;;;18.21;41.70
18784;BME280;9520;50.954;6.968;2022-11-03T00:04:17;101130.69;;;18.19;41.88
18784;BME280;9520;50.954;6.968;2022-11-03T00:04:39;101139.44;;;18.23;41.70
18784;BME280;9520;50.954;6.968;2022-11-03T00:05:01;101138.50;;;18.24;41.68
18784;BME280;9520;50.954;6.968;2022-11-03T00:05:43;101138.38;;;18.27;41.38
18784;BME280;9520;50.954;6.968;2022-11-03T00:06:23;101137.31;;;18.31;41.33
18784;BME280;9520;50.954;6.968;2022-11-03T00:06:46;101124.94;;;18.06;41.54
18784;BME280;9520;50.954;6.968;2022-11-03T00:07:09;101133.91;;;18.05;41.79
18784;BME280;9520;50.954;6.968;2022-11-03T00:07:31;101138.19;;;18.09;41.50
18784;BME280;9520;50.954;6.968;2022-11-03T00:07:53;101134.00;;;18.02;41.85
18784;BME280;9520;50.954;6.968;2022-11-03T00:08:14;101136.97;;;17.95;41.70
18784;BME280;9520;50.954;6.968;2022-11-03T00:08:38;101125.59;;;17.90;41.90
18784;BME280;9520;50.954;6.968;2022-11-03T00:09:03;101136.56;;;18.05;41.61
18784;BME280;9520;50.954;6.968;2022-11-03T00:09:24;101134.91;;;18.01;41.94
18784;BME280;9520;50.954;6.968;2022-11-03T00:09:48;101137.41;;;18.06;41.74
18784;BME280;9520;50.954;6.968;2022-11-03T00:10:10;101131.22;;;18.05;41.95
18784;BME280;9520;50.954;6.968;2022-11-03T00:10:31;101128.44;;;18.08;41.66
18784;BME280;9520;50.954;6.968;2022-11-03T00:10:53;101136.22;;;18.15;41.82
18784;BME280;9520;50.954;6.968;2022-11-03T00:11:21;101127.00;;;18.22;41.47
18784;BME280;9520;50.954;6.968;2022-11-03T00:11:46;101124.34;;;18.22;41.49
18784;BME280;9520;50.954;6.968;2022-11-03T00:12:08;101131.38;;;18.24;41.64
18784;BME280;9520;50.954;6.968;2022-11-03T00:12:29;101129.25;;;18.10;41.81
18784;BME280;9520;50.954;6.968;2022-11-03T00:12:52;101113.47;;;18.04;41.75
18784;BME280;9520;50.954;6.968;2022-11-03T00:13:15;101118.81;;;18.04;41.82
18784;BME280;9520;50.954;6.968;2022-11-03T00:13:38;101124.19;;;18.03;41.64
18784;BME280;9520;50.954;6.968;2022-11-03T00:14:01;101112.66;;;18.02;41.75
18784;BME280;9520;50.954;6.968;2022-11-03T00:14:23;101118.69;;;18.07;41.73
18784;BME280;9520;50.954;6.968;2022-11-03T00:14:45;101116.25;;;18.01;41.80
18784;BME280;9520;50.954;6.968;2022-11-03T00:15:07;101118.03;;;18.01;41.94
18784;BME280;9520;50.954;6.968;2022-11-03T00:15:29;101115.09;;;17.85;42.18
18784;BME280;9520;50.954;6.968;2022-11-03T00:15:51;101119.41;;;17.89;42.19
18784;BME280;9520;50.954;6.968;2022-11-03T00:16:13;101113.69;;;17.98;42.17
18784;BME280;9520;50.954;6.968;2022-11-03T00:16:35;101113.47;;;18.04;42.17
18784;BME280;9520;50.954;6.968;2022-11-03T00:16:58;101118.81;;;18.04;42.28
18784;BME280;9520;50.954;6.968;2022-11-03T00:17:19;101113.38;;;18.06;42.14
18784;BME280;9520;50.954;6.968;2022-11-03T00:17:41;101122.34;;;18.05;42.20
18784;BME280;9520;50.954;6.968;2022-11-03T00:18:02;101110.84;;;18.03;41.93
18784;BME280;9520;50.954;6.968;2022-11-03T00:18:25;101109.78;;;18.07;41.86
18784;BME280;9520;50.954;6.968;2022-11-03T00:18:47;101112.28;;;18.11;41.89
18784;BME280;9520;50.954;6.968;2022-11-03T00:19:10;101112.09;;;18.16;41.98
18784;BME280;9520;50.954;6.968;2022-11-03T00:19:35;101117.25;;;18.21;41.82
18784;BME280;9520;50.954;6.968;2022-11-03T00:19:56;101111.81;;;18.24;41.89
18784;BME280;9520;50.954;6.968;2022-11-03T00:20:18;101118.81;;;18.26;41.86
18784;BME280;9520;50.954;6.968;2022-11-03T00:20:40;101119.81;;;18.24;41.66
18784;BME280;9520;50.954;6.968;2022-11-03T00:21:03;101120.00;;;18.19;41.99
18784;BME280;9520;50.954;6.968;2022-11-03T00:21:26;101108.69;;;18.12;41.83
18784;BME280;9520;50.954;6.968;2022-11-03T00:21:48;101116.69;;;18.12;42.16
18784;BME280;9520;50.954;6.968;2022-11-03T00:22:10;101120.19;;;18.15;41.87
18784;BME280;9520;50.954;6.968;2022-11-03T00:22:33;101120.25;;;18.13;42.05
18784;BME280;9520;50.954;6.968;2022-11-03T00:22:55;101116.81;;;18.09;42.12
18784;BME280;9520;50.954;6.968;2022-11-03T00:23:16;101102.28;;;17.95;42.01
18784;BME280;9520;50.954;6.968;2022-11-03T00:23:39;101113.47;;;18.04;41.99
18784;BME280;9520;50.954;6.968;2022-11-03T00:24:02;101110.03;;;18.01;41.82
18784;BME280;9520;50.954;6.968;2022-11-03T00:24:25;101122.22;;;18.08;42.05
18784;BME280;9520;50.954;6.968;2022-11-03T00:24:46;101117.81;;;18.07;42.25
18784;BME280;9520;50.954;6.968;2022-11-03T00:25:08;101114.38;;;18.03;42.39
18784;BME280;9520;50.954;6.968;2022-11-03T00:25:30;101110.09;;;17.99;42.12
18784;BME280;9520;50.954;6.968;2022-11-03T00:25:51;101122.28;;;18.06;42.43
18784;BME280;9520;50.954;6.968;2022-11-03T00:26:14;101112.47;;;18.07;42.23
18784;BME280;9520;50.954;6.968;2022-11-03T00:26:38;101110.63;;;18.09;42.31
18784;BME280;9520;50.954;6.968;2022-11-03T00:26:59;101116.69;;;18.12;42.00
18784;BME280;9520;50.954;6.968;2022-11-03T00:27:21;101127.38;;;18.12;42.13
18784;BME280;9520;50.954;6.968;2022-11-03T00:27:43;101118.41;;;18.15;42.06
18784;BME280;9520;50.954;6.968;2022-11-03T00:28:04;101117.34;;;18.19;42.07
18784;BME280;9520;50.954;6.968;2022-11-03T00:28:26;101118.22;;;18.20;42.07
18784;BME280;9520;50.954;6.968;2022-11-03T00:28:49;101119.78;;;18.25;41.89
18784;BME280;9520;50.954;6.968;2022-11-03T00:29:12;101114.34;;;18.27;41.88
18784;BME280;9520;50.954;6.968;2022-11-03T00:29:34;101104.91;;;18.18;42.06
18784;BME280;9520;50.954;6.968;2022-11-03T00:29:56;101116.03;;;18.29;41.78
18784;BME280;9520;50.954;6.968;2022-11-03T00:30:17;101112.38;;;18.32;41.69
18784;BME280;9520;50.954;6.968;2022-11-03T00:30:39;101111.44;;;18.33;41.77
18784;BME280;9520;50.954;6.968;2022-11-03T00:31:05;101114.97;;;18.33;41.68
18784;BME280;9520;50.954;6.968;2022-11-03T00:31:29;101112.13;;;18.38;41.77
18784;BME280;9520;50.954;6.968;2022-11-03T00:31:51;101111.19;;;18.39;41.66
18784;BME280;9520;50.954;6.968;2022-11-03T00:32:13;101108.53;;;18.39;41.62
18784;BME280;9520;50.954;6.968;2022-11-03T00:32:35;101112.06;;;18.39;41.69
18784;BME280;9520;50.954;6.968;2022-11-03T00:32:57;101112.94;;;18.40;41.61
18784;BME280;9520;50.954;6.968;2022-11-03T00:33:18;101112.88;;;18.41;41.63
18784;BME280;9520;50.954;6.968;2022-11-03T00:33:41;101107.53;;;18.20;42.11
18784;BME280;9520;50.954;6.968;2022-11-03T00:34:04;101111.13;;;18.19;41.99
18784;BME280;9520;50.954;6.968;2022-11-03T00:34:26;101108.44;;;18.19;42.00
18784;BME280;9520;50.954;6.968;2022-11-03T00:34:49;101112.69;;;18.24;42.09
18784;BME280;9520;50.954;6.968;2022-11-03T00:35:10;101105.59;;;18.23;42.29
18784;BME280;9520;50.954;6.968;2022-11-03T00:35:33;101108.25;;;18.23;42.05
18784;BME280;9520;50.954;6.968;2022-11-03T00:35:58;101102.09;;;18.21;42.03
18784;BME280;9520;50.954;6.968;2022-11-03T00:36:21;101105.53;;;18.25;42.10
18784;BME280;9520;50.954;6.968;2022-11-03T00:36:43;101110.75;;;18.28;42.16
18784;BME280;9520;50.954;6.968;2022-11-03T00:37:06;101106.56;;;18.21;41.95
18784;BME280;9520;50.954;6.968;2022-11-03T00:37:27;101109.25;;;18.21;42.09
18784;BME280;9520;50.954;6.968;2022-11-03T00:37:49;101107.25;;;18.26;42.07
18784;BME280;9520;50.954;6.968;2022-11-03T00:38:10;101111.75;;;18.25;42.08
18784;BME280;9520;50.954;6.968;2022-11-03T00:38:32;101104.69;;;18.24;42.12
18784;BME280;9520;50.954;6.968;2022-11-03T00:38:54;101105.84;;;18.17;42.04
18784;BME280;9520;50.954;6.968;2022-11-03T00:39:17;101091.09;;;18.07;42.48
18784;BME280;9520;50.954;6.968;2022-11-03T00:39:39;101106.66;;;18.19;42.19
18784;BME280;9520;50.954;6.968;2022-11-03T00:40:00;101104.72;;;18.23;42.11
18784;BME280;9520;50.954;6.968;2022-11-03T00:40:22;101106.41;;;18.25;42.16
18784;BME280;9520;50.954;6.968;2022-11-03T00:40:45;101103.81;;;18.24;42.15
18784;BME280;9520;50.954;6.968;2022-11-03T00:41:06;101106.66;;;18.19;42.45
18784;BME280;9520;50.954;6.968;2022-11-03T00:41:28;101106.47;;;18.24;42.28
18784;BME280;9520;50.954;6.968;2022-11-03T00:41:50;101104.59;;;18.26;42.31
18784;BME280;9520;50.954;6.968;2022-11-03T00:42:13;101100.94;;;18.28;42.21
18784;BME280;9520;50.954;6.968;2022-11-03T00:42:35;101104.53;;;18.27;42.22
18784;BME280;9520;50.954;6.968;2022-11-03T00:42:58;101090.50;;;18.22;42.33
18784;BME280;9520;50.954;6.968;2022-11-03T00:43:20;101102.59;;;18.31;42.21
18784;BME280;9520;50.954;6.968;2022-11-03T00:43:42;101087.78;;;18.24;42.04
18784;BME280;9520;50.954;6.968;2022-11-03T00:44:04;101092.88;;;18.30;42.19
18784;BME280;9520;50.954;6.968;2022-11-03T00:44:26;101097.22;;;18.32;42.38
18784;BME280;9520;50.954;6.968;2022-11-03T00:44:48;101081.63;;;18.22;42.10
18784;BME280;9520;50.954;6.968;2022-11-03T00:45:10;101103.91;;;18.21;42.54
18784;BME280;9520;50.954;6.968;2022-11-03T00:45:31;101096.94;;;18.17;42.34
18784;BME280;9520;50.954;6.968;2022-11-03T00:45:54;101094.22;;;18.18;42.45
18784;BME280;9520;50.954;6.968;2022-11-03T00:46:17;101093.13;;;18.24;42.33
18784;BME280;9520;50.954;6.968;2022-11-03T00:46:39;101093.06;;;18.25;42.29
18784;BME280;9520;50.954;6.968;2022-11-03T00:47:01;101093.75;;;18.30;42.35
18784;BME280;9520;50.954;6.968;2022-11-03T00:47:22;101100.06;;;18.28;42.36
18784;BME280;9520;50.954;6.968;2022-11-03T00:47:44;101097.25;;;18.31;42.13
18784;BME280;9520;50.954;6.968;2022-11-03T00:48:21;101094.50;;;18.34;42.39
18784;BME280;9520;50.954;6.968;2022-11-03T00:48:54;101089.94;;;18.36;42.21
18784;BME280;9520;50.954;6.968;2022-11-03T00:49:16;101097.91;;;18.37;42.29
18784;BME280;9520;50.954;6.968;2022-11-03T00:49:37;101094.25;;;18.40;42.04
18784;BME280;9520;50.954;6.968;2022-11-03T00:50:01;101092.38;;;18.42;42.24
18784;BME280;9520;50.954;6.968;2022-11-03T00:50:23;101095.03;;;18.42;42.12
18784;BME280;9520;50.954;6.968;2022-11-03T00:50:44;101103.19;;;18.39;42.11
18784;BME280;9520;50.954;6.968;2022-11-03T00:51:08;101094.50;;;18.34;42.34
18784;BME280;9520;50.954;6.968;2022-11-03T00:51:32;101098.50;;;18.22;42.44
18784;BME280;9520;50.954;6.968;2022-11-03T00:51:55;101091.13;;;18.29;42.54
18784;BME280;9520;50.954;6.968;2022-11-03T00:52:16;101089.25;;;18.31;42.19
18784;BME280;9520;50.954;6.968;2022-11-03T00:52:38;101088.28;;;18.33;42.33
18784;BME280;9520;50.954;6.968;2022-11-03T00:52:59;101094.50;;;18.34;42.52
18784;BME280;9520;50.954;6.968;2022-11-03T00:53:22;101094.72;;;18.28;42.61
18784;BME280;9520;50.954;6.968;2022-11-03T00:53:45;101097.63;;;18.22;42.47
18784;BME280;9520;50.954;6.968;2022-11-03T00:54:07;101094.88;;;18.25;42.36
18784;BME280;9520;50.954;6.968;2022-11-03T00:54:29;101086.66;;;18.29;42.41
18784;BME280;9520;50.954;6.968;2022-11-03T00:54:51;101091.00;;;18.32;42.25
18784;BME280;9520;50.954;6.968;2022-11-03T00:55:15;101093.34;;;18.18;42.63
18784;BME280;9520;50.954;6.968;2022-11-03T00:55:37;101090.44;;;18.24;42.41
18784;BME280;9520;50.954;6.968;2022-11-03T00:55:59;101078.25;;;18.17;42.42
18784;BME280;9520;50.954;6.968;2022-11-03T00:56:23;101090.22;;;18.30;42.47
18784;BME280;9520;50.954;6.968;2022-11-03T00:56:45;101091.00;;;18.32;42.22
18784;BME280;9520;50.954;6.968;2022-11-03T00:57:06;101074.88;;;18.35;42.25
18784;BME280;9520;50.954;6.968;2022-11-03T00:57:28;101077.44;;;18.36;42.13
18784;BME280;9520;50.954;6.968;2022-11-03T00:57:51;101086.38;;;18.35;42.25
18784;BME280;9520;50.954;6.968;2022-11-03T00:58:13;101082.31;;;18.27;42.53
18784;BME280;9520;50.954;6.968;2022-11-03T00:58:35;101078.66;;;18.29;42.35
18784;BME280;9520;50.954;6.968;2022-11-03T00:58:58;101083.34;;;18.23;42.57
18784;BME280;9520;50.954;6.968;2022-11-03T00:59:20;101084.91;;;18.28;42.58
18784;BME280;9520;50.954;6.968;2022-11-03T00:59:42;101082.31;;;18.27;42.57
18784;BME280;9520;50.954;6.968;2022-11-03T01:00:05;101090.25;;;18.28;42.63
18784;BME280;9520;50.954;6.968;2022-11-03T01:00:27;101085.84;;;18.27;42.49
18784;BME280;9520;50.954;6.968;2022-11-03T01:00:48;101082.97;;;18.32;42.60
18784;BME280;9520;50.954;6.968;2022-11-03T01:01:12;101077.53;;;18.35;42.36
18784;BME280;9520;50.954;6.968;2022-11-03T01:01:37;101048.78;;;18.20;42.47
18784;BME280;9520;50.954;6.968;2022-11-03T01:02:06;101080.94;;;18.38;42.11
18784;BME280;9520;50.954;6.968;2022-11-03T01:02:29;101073.81;;;18.39;42.16
18784;BME280;9520;50.954;6.968;2022-11-03T01:02:51;101077.34;;;18.39;42.40
18784;BME280;9520;50.954;6.968;2022-11-03T01:03:12;101066.38;;;18.25;42.23
18784;BME280;9520;50.954;6.968;2022-11-03T01:03:36;101078.53;;;18.10;42.64
18784;BME280;9520;50.954;6.968;2022-11-03T01:03:59;101074.53;;;18.21;42.75
18784;BME280;9520;50.954;6.968;2022-11-03T01:04:40;101074.25;;;18.28;42.57
18784;BME280;9520;50.954;6.968;2022-11-03T01:05:21;101067.19;;;18.26;42.42
18784;BME280;9520;50.954;6.968;2022-11-03T01:06:01;101073.38;;;18.28;42.54
18784;BME280;9520;50.954;6.968;2022-11-03T01:06:42;101078.53;;;18.32;42.62
18784;BME280;9520;50.954;6.968;2022-11-03T01:07:10;101075.97;;;18.29;42.70
18784;BME280;9520;50.954;6.968;2022-11-03T01:07:32;101073.38;;;18.28;42.70
18784;BME280;9520;50.954;6.968;2022-11-03T01:07:53;101075.16;;;18.27;42.80
18784;BME280;9520;50.954;6.968;2022-11-03T01:08:15;101074.28;;;18.27;42.73
18784;BME280;9520;50.954;6.968;2022-11-03T01:08:38;101078.06;;;18.21;42.95
18784;BME280;9520;50.954;6.968;2022-11-03T01:08:59;101068.16;;;18.25;42.76
18784;BME280;9520;50.954;6.968;2022-11-03T01:09:23;101070.75;;;18.26;42.78
18784;BME280;9520;50.954;6.968;2022-11-03T01:09:45;101073.22;;;18.31;42.78
18784;BME280;9520;50.954;6.968;2022-11-03T01:10:07;101068.75;;;18.31;42.76
18784;BME280;9520;50.954;6.968;2022-11-03T01:10:30;101066.09;;;18.31;42.78
18784;BME280;9520;50.954;6.968;2022-11-03T01:10:51;101070.69;;;18.28;42.80
18784;BME280;9520;50.954;6.968;2022-11-03T01:11:31;101069.88;;;18.26;43.08
18784;BME280;9520;50.954;6.968;2022-11-03T01:12:06;101067.28;;;18.24;43.06
18784;BME280;9520;50.954;6.968;2022-11-03T01:12:29;101069.97;;;18.24;42.81
18784;BME280;9520;50.954;6.968;2022-11-03T01:12:51;101073.31;;;18.29;43.05
18784;BME280;9520;50.954;6.968;2022-11-03T01:13:13;101067.88;;;18.31;42.93
18784;BME280;9520;50.954;6.968;2022-11-03T01:13:34;101072.25;;;18.33;42.78
18784;BME280;9520;50.954;6.968;2022-11-03T01:13:56;101074.97;;;18.32;42.77
18784;BME280;9520;50.954;6.968;2022-11-03T01:14:20;101076.72;;;18.33;42.77
18784;BME280;9520;50.954;6.968;2022-11-03T01:14:43;101073.19;;;18.32;42.84
18784;BME280;9520;50.954;6.968;2022-11-03T01:15:06;101074.97;;;18.32;42.88
18784;BME280;9520;50.954;6.968;2022-11-03T01:15:28;101076.56;;;18.36;42.91
18784;BME280;9520;50.954;6.968;2022-11-03T01:15:50;101073.84;;;18.37;42.59
18784;BME280;9520;50.954;6.968;2022-11-03T01:16:12;101069.44;;;18.36;42.76
18784;BME280;9520;50.954;6.968;2022-11-03T01:16:33;101075.78;;;18.34;42.79
18784;BME280;9520;50.954;6.968;2022-11-03T01:16:55;101070.44;;;18.34;42.97
18784;BME280;9520;50.954;6.968;2022-11-03T01:17:19;101066.91;;;18.33;42.85
18784;BME280;9520;50.954;6.968;2022-11-03T01:17:41;101081.91;;;18.36;42.93
18784;BME280;9520;50.954;6.968;2022-11-03T01:18:02;101077.53;;;18.35;43.14
18784;BME280;9520;50.954;6.968;2022-11-03T01:18:24;101067.84;;;18.32;42.71
18784;BME280;9520;50.954;6.968;2022-11-03T01:18:47;101081.06;;;18.35;42.76
18784;BME280;9520;50.954;6.968;2022-11-03T01:19:09;101065.91;;;18.36;42.81
18784;BME280;9520;50.954;6.968;2022-11-03T01:19:31;101072.97;;;18.37;42.65
18784;BME280;9520;50.954;6.968;2022-11-03T01:19:53;101071.16;;;18.16;43.20
18784;BME280;9520;50.954;6.968;2022-11-03T01:20:17;101072.56;;;18.04;43.32
18784;BME280;9520;50.954;6.968;2022-11-03T01:20:40;101061.88;;;18.04;43.54
18784;BME280;9520;50.954;6.968;2022-11-03T01:21:01;101059.16;;;18.05;43.34
18784;BME280;9520;50.954;6.968;2022-11-03T01:21:23;101072.00;;;18.18;43.11
18784;BME280;9520;50.954;6.968;2022-11-03T01:21:45;101046.41;;;18.12;43.14
18784;BME280;9520;50.954;6.968;2022-11-03T01:22:08;101063.06;;;18.19;43.27
18784;BME280;9520;50.954;6.968;2022-11-03T01:22:31;101058.50;;;18.21;43.28
18784;BME280;9520;50.954;6.968;2022-11-03T01:22:53;101059.47;;;18.20;43.34
18784;BME280;9520;50.954;6.968;2022-11-03T01:23:14;101064.44;;;18.29;43.03
18784;BME280;9520;50.954;6.968;2022-11-03T01:23:36;101060.84;;;18.30;43.18
18784;BME280;9520;50.954;6.968;2022-11-03T01:23:59;101063.38;;;18.33;43.11
18784;BME280;9520;50.954;6.968;2022-11-03T01:24:21;101060.84;;;18.30;43.03
18784;BME280;9520;50.954;6.968;2022-11-03T01:24:43;101052.47;;;18.16;43.04
18784;BME280;9520;50.954;6.968;2022-11-03T01:25:07;101066.41;;;18.24;43.25
18784;BME280;9520;50.954;6.968;2022-11-03T01:25:29;101060.25;;;18.22;43.27
18784;BME280;9520;50.954;6.968;2022-11-03T01:25:50;101054.13;;;18.20;43.14
18784;BME280;9520;50.954;6.968;2022-11-03T01:26:12;101064.44;;;18.29;42.91
18784;BME280;9520;50.954;6.968;2022-11-03T01:26:34;101058.94;;;18.32;43.05
18784;BME280;9520;50.954;6.968;2022-11-03T01:26:57;101051.19;;;18.26;42.91
18784;BME280;9520;50.954;6.968;2022-11-03T01:27:20;101060.56;;;18.36;42.93
18784;BME280;9520;50.954;6.968;2022-11-03T01:27:42;101060.66;;;18.34;43.06
18784;BME280;9520;50.954;6.968;2022-11-03T01:28:05;101065.16;;;18.32;43.04
18784;BME280;9520;50.954;6.968;2022-11-03T01:28:26;101057.09;;;18.34;43.10
18784;BME280;9520;50.954;6.968;2022-11-03T01:28:48;101063.38;;;18.33;42.93
18784;BME280;9520;50.954;6.968;2022-11-03T01:29:10;101057.09;;;18.34;43.19
18784;BME280;9520;50.954;6.968;2022-11-03T01:29:31;101057.97;;;18.34;43.11
18784;BME280;9520;50.954;6.968;2022-11-03T01:29:54;101055.16;;;18.37;43.33
18784;BME280;9520;50.954;6.968;2022-11-03T01:30:15;101060.44;;;18.39;43.16
18784;BME280;9520;50.954;6.968;2022-11-03T01:30:37;101054.19;;;18.40;43.18
18784;BME280;9520;50.954;6.968;2022-11-03T01:31:02;101056.78;;;18.41;43.19
18784;BME280;9520;50.954;6.968;2022-11-03T01:31:24;101055.66;;;18.47;43.06
18784;BME280;9520;50.954;6.968;2022-11-03T01:31:47;101049.53;;;18.45;42.90
18784;BME280;9520;50.954;6.968;2022-11-03T01:32:09;101057.44;;;18.46;43.24
18784;BME280;9520;50.954;6.968;2022-11-03T01:32:31;101050.44;;;18.44;43.02
18784;BME280;9520;50.954;6.968;2022-11-03T01:32:53;101055.03;;;18.40;42.95
18784;BME280;9520;50.954;6.968;2022-11-03T01:33:15;101050.56;;;18.41;43.11
18784;BME280;9520;50.954;6.968;2022-11-03T01:33:37;101038.22;;;18.38;42.94
18784;BME280;9520;50.954;6.968;2022-11-03T01:33:59;101050.31;;;18.47;42.94
18784;BME280;9520;50.954;6.968;2022-11-03T01:34:21;101049.53;;;18.45;42.99
18784;BME280;9520;50.954;6.968;2022-11-03T01:34:43;101050.44;;;18.44;42.79
18784;BME280;9520;50.954;6.968;2022-11-03T01:35:06;101047.78;;;18.44;43.02
18784;BME280;9520;50.954;6.968;2022-11-03T01:35:28;101045.03;;;18.45;43.01
18784;BME280;9520;50.954;6.968;2022-11-03T01:35:53;101051.22;;;18.46;43.13
18784;BME280;9520;50.954;6.968;2022-11-03T01:36:14;101043.97;;;18.49;42.95
18784;BME280;9520;50.954;6.968;2022-11-03T01:36:37;101044.78;;;18.51;42.99
18784;BME280;9520;50.954;6.968;2022-11-03T01:36:59;101052.72;;;18.53;42.81
18784;BME280;9520;50.954;6.968;2022-11-03T01:37:21;101047.28;;;18.56;42.99
18784;BME280;9520;50.954;6.968;2022-11-03T01:37:44;101040.13;;;18.57;43.11
18784;BME280;9520;50.954;6.968;2022-11-03T01:38:07;101048.09;;;18.58;42.77
18784;BME280;9520;50.954;6.968;2022-11-03T01:38:31;101043.72;;;18.55;42.87
18784;BME280;9520;50.954;6.968;2022-11-03T01:38:54;101042.81;;;18.57;42.87
18784;BME280;9520;50.954;6.968;2022-11-03T01:39:17;101040.28;;;18.52;42.98
18784;BME280;9520;50.954;6.968;2022-11-03T01:39:40;101034.28;;;18.47;43.01
18784;BME280;9520;50.954;6.968;2022-11-03T01:40:39;101045.63;;;18.53;43.18
18784;BME280;9520;50.954;6.968;2022-11-03T01:41:04;101035.88;;;18.51;42.83
18784;BME280;9520;50.954;6.968;2022-11-03T01:41:27;101038.56;;;18.51;42.96
18784;BME280;9520;50.954;6.968;2022-11-03T01:41:50;101044.72;;;18.53;42.98
18784;BME280;9520;50.954;6.968;2022-11-03T01:42:12;101041.16;;;18.54;42.93
18784;BME280;9520;50.954;6.968;2022-11-03T01:42:35;101031.56;;;18.48;43.03
18784;BME280;9520;50.954;6.968;2022-11-03T01:43:14;101032.53;;;18.46;42.95
18784;BME280;9520;50.954;6.968;2022-11-03T01:43:37;101035.09;;;18.49;42.95
18784;BME280;9520;50.954;6.968;2022-11-03T01:44:25;101040.28;;;18.52;43.01
18784;BME280;9520;50.954;6.968;2022-11-03T01:44:48;101038.56;;;18.51;42.96
18784;BME280;9520;50.954;6.968;2022-11-03T01:45:09;101037.63;;;18.52;42.85
18784;BME280;9520;50.954;6.968;2022-11-03T01:45:31;101030.47;;;18.52;42.95
18784;BME280;9520;50.954;6.968;2022-11-03T01:45:59;101040.28;;;18.52;42.95
18784;BME280;9520;50.954;6.968;2022-11-03T01:46:25;101034.47;;;18.42;43.02
18784;BME280;9520;50.954;6.968;2022-11-03T01:46:52;101030.19;;;18.38;43.16
18784;BME280;9520;50.954;6.968;2022-11-03T01:47:21;101031.59;;;18.47;43.07
18784;BME280;9520;50.954;6.968;2022-11-03T01:47:46;101037.78;;;18.49;43.13
18784;BME280;9520;50.954;6.968;2022-11-03T01:48:08;101038.56;;;18.51;43.09
18784;BME280;9520;50.954;6.968;2022-11-03T01:48:31;101040.28;;;18.53;43.02
18784;BME280;9520;50.954;6.968;2022-11-03T01:48:59;101030.47;;;18.54;43.07
18784;BME280;9520;50.954;6.968;2022-11-03T01:49:26;101031.34;;;18.53;43.13
18784;BME280;9520;50.954;6.968;2022-11-03T01:49:54;101038.38;;;18.55;43.06
18784;BME280;9520;50.954;6.968;2022-11-03T01:50:19;101023.34;;;18.53;42.82
18784;BME280;9520;50.954;6.968;2022-11-03T01:50:42;101028.53;;;18.58;42.96
18784;BME280;9520;50.954;6.968;2022-11-03T01:51:09;101032.13;;;18.57;43.03
18784;BME280;9520;50.954;6.968;2022-11-03T01:51:33;101030.81;;;18.45;42.98
18784;BME280;9520;50.954;6.968;2022-11-03T01:51:59;101027.13;;;18.47;43.24
18784;BME280;9520;50.954;6.968;2022-11-03T01:52:25;101025.53;;;18.43;43.04
18784;BME280;9520;50.954;6.968;2022-11-03T01:52:51;101015.72;;;18.44;43.23
18784;BME280;9520;50.954;6.968;2022-11-03T01:53:15;101018.25;;;18.47;43.05
18784;BME280;9520;50.954;6.968;2022-11-03T01:53:41;101027.94;;;18.49;43.24
18784;BME280;9520;50.954;6.968;2022-11-03T01:54:08;101026.00;;;18.53;43.19
18784;BME280;9520;50.954;6.968;2022-11-03T01:54:33;101022.66;;;18.48;43.17
18784;BME280;9520;50.954;6.968;2022-11-03T01:55:01;101015.78;;;18.42;43.29
18784;BME280;9520;50.954;6.968;2022-11-03T01:55:26;101013.84;;;18.46;43.50
18784;BME280;9520;50.954;6.968;2022-11-03T01:55:49;101021.78;;;18.47;43.22
18784;BME280;9520;50.954;6.968;2022-11-03T01:56:15;101028.16;;;18.45;43.31
18784;BME280;9520;50.954;6.968;2022-11-03T01:56:40;101015.72;;;18.44;43.31
18784;BME280;9520;50.954;6.968;2022-11-03T01:57:06;101015.63;;;18.45;43.23
18784;BME280;9520;50.954;6.968;2022-11-03T01:57:34;101013.84;;;18.46;43.41
18784;BME280;9520;50.954;6.968;2022-11-03T01:58:01;101014.59;;;18.49;43.25
18784;BME280;9520;50.954;6.968;2022-11-03T01:58:29;101006.50;;;18.51;43.07
18784;BME280;9520;50.954;6.968;2022-11-03T01:58:53;101011.25;;;18.44;43.33
18784;BME280;9520;50.954;6.968;2022-11-03T01:59:17;100999.88;;;18.39;43.33
18784;BME280;9520;50.954;6.968;2022-11-03T01:59:43;101011.97;;;18.48;43.43
18784;BME280;9520;50.954;6.968;2022-11-03T02:00:13;101008.63;;;18.43;43.58
18784;BME280;9520;50.954;6.968;2022-11-03T02:00:35;101002.28;;;18.45;43.32
18784;BME280;9520;50.954;6.968;2022-11-03T02:00:58;100995.09;;;18.47;43.43
18784;BME280;9520;50.954;6.968;2022-11-03T02:01:23;100999.44;;;18.50;43.47
18784;BME280;9520;50.954;6.968;2022-11-03T02:01:45;101002.28;;;18.45;43.66
18784;BME280;9520;50.954;6.968;2022-11-03T02:02:09;101006.34;;;18.34;43.66
18784;BME280;9520;50.954;6.968;2022-11-03T02:02:31;101002.66;;;18.36;43.72
18784;BME280;9520;50.954;6.968;2022-11-03T02:02:54;100998.09;;;18.40;43.63
18784;BME280;9520;50.954;6.968;2022-11-03T02:03:17;100994.47;;;18.41;43.63
18784;BME280;9520;50.954;6.968;2022-11-03T02:03:43;100999.56;;;18.47;43.58
18784;BME280;9520;50.954;6.968;2022-11-03T02:04:10;101000.41;;;18.47;43.61
18784;BME280;9520;50.954;6.968;2022-11-03T02:04:33;100993.28;;;18.48;43.54
18784;BME280;9520;50.954;6.968;2022-11-03T02:04:59;101002.03;;;18.51;43.60